createdAt,value
2022-09-07T00:01:49.767Z,13.97
2022-09-07T00:03:56.982Z,13.96
2022-09-07T00:06:07.753Z,13.95
2022-09-07T00:08:12.100Z,13.95
2022-09-07T00:10:16.231Z,13.95
2022-09-07T00:12:20.002Z,13.97
2022-09-07T00:14:23.483Z,13.98
2022-09-07T00:16:29.736Z,14.02
2022-09-07T00:18:33.355Z,14.06
2022-09-07T00:20:37.334Z,14.07
2022-09-07T00:22:42.840Z,14.08
2022-09-07T00:24:46.493Z,14.09
2022-09-07T00:26:50.225Z,14.12
2022-09-07T00:28:57.562Z,14.16
2022-09-07T00:31:01.264Z,14.17
2022-09-07T00:33:04.958Z,14.17
2022-09-07T00:35:09.073Z,14.18
2022-09-07T00:37:12.916Z,14.19
2022-09-07T00:39:17.898Z,14.20
2022-09-07T00:41:23.169Z,14.18
2022-09-07T00:43:32.700Z,14.15
2022-09-07T00:45:36.826Z,14.11
2022-09-07T00:47:48.878Z,14.09
2022-09-07T00:49:57.189Z,14.05
2022-09-07T00:52:05.292Z,14.02
2022-09-07T00:54:12.297Z,14.01
2022-09-07T00:56:17.666Z,13.99
2022-09-07T00:58:23.265Z,13.97
2022-09-07T01:00:28.521Z,13.93
2022-09-07T01:02:32.619Z,13.90
2022-09-07T01:04:36.444Z,13.88
2022-09-07T01:06:42.817Z,13.86
2022-09-07T01:08:49.934Z,13.86
2022-09-07T01:10:53.571Z,13.85
2022-09-07T01:12:58.665Z,13.85
2022-09-07T01:15:02.563Z,13.84
2022-09-07T01:17:14.507Z,13.83
2022-09-07T01:19:53.593Z,13.83
2022-09-07T01:22:30.846Z,13.84
2022-09-07T01:24:43.010Z,13.85
2022-09-07T01:27:24.570Z,13.86
2022-09-07T01:29:32.774Z,13.86
2022-09-07T01:31:43.679Z,13.89
2022-09-07T01:34:00.330Z,13.91
2022-09-07T01:36:16.364Z,13.92
2022-09-07T01:38:31.623Z,13.94
2022-09-07T01:40:45.016Z,13.92
2022-09-07T01:42:52.390Z,13.92
2022-09-07T01:45:01.327Z,13.91
2022-09-07T01:47:10.720Z,13.91
2022-09-07T01:49:21.913Z,13.92
2022-09-07T01:51:31.945Z,13.94
2022-09-07T01:53:40.710Z,13.95
2022-09-07T01:55:48.057Z,13.94
2022-09-07T01:57:56.559Z,13.95
2022-09-07T02:00:07.502Z,13.94
2022-09-07T02:02:19.367Z,13.92
2022-09-07T02:04:26.889Z,13.92
2022-09-07T02:06:38.878Z,13.90
2022-09-07T02:08:47.568Z,13.91
2022-09-07T02:10:55.568Z,13.90
2022-09-07T02:13:06.930Z,13.91
2022-09-07T02:15:17.126Z,13.90
2022-09-07T02:17:24.157Z,13.88
2022-09-07T02:19:32.938Z,13.90
2022-09-07T02:21:40.688Z,13.90
2022-09-07T02:23:50.349Z,13.90
2022-09-07T02:26:00.418Z,13.89
2022-09-07T02:28:09.832Z,13.87
2022-09-07T02:30:15.139Z,13.85
2022-09-07T02:32:18.377Z,13.85
2022-09-07T02:34:21.876Z,13.84
2022-09-07T02:36:29.744Z,13.83
2022-09-07T02:38:33.347Z,13.82
2022-09-07T02:40:37.323Z,13.83
2022-09-07T02:42:40.951Z,13.83
2022-09-07T02:44:45.747Z,13.83
2022-09-07T02:47:05.997Z,13.84
2022-09-07T02:49:17.821Z,13.84
2022-09-07T02:51:33.075Z,13.85
2022-09-07T02:53:57.785Z,13.86
2022-09-07T02:56:12.924Z,13.87
2022-09-07T02:58:30.884Z,13.86
2022-09-07T03:00:40.944Z,13.87
2022-09-07T03:02:53.282Z,13.90
2022-09-07T03:05:03.855Z,13.93
2022-09-07T03:07:12.328Z,13.98
2022-09-07T03:09:21.078Z,14.01
2022-09-07T03:11:24.638Z,14.03
2022-09-07T03:13:30.084Z,14.03
2022-09-07T03:15:33.372Z,14.03
2022-09-07T03:17:36.815Z,14.02
2022-09-07T03:19:41.566Z,14.02
2022-09-07T03:21:45.090Z,14.02
2022-09-07T03:23:51.741Z,14.01
2022-09-07T03:25:55.343Z,14.01
2022-09-07T03:27:58.654Z,14.02
2022-09-07T03:30:02.487Z,14.02
2022-09-07T03:32:05.872Z,14.02
2022-09-07T03:34:09.588Z,14.01
2022-09-07T03:36:14.700Z,14.00
2022-09-07T03:38:18.450Z,13.98
2022-09-07T03:40:22.050Z,13.97
2022-09-07T03:42:25.950Z,13.96
2022-09-07T03:44:30.262Z,13.94
2022-09-07T03:46:34.736Z,13.92
2022-09-07T03:48:40.026Z,13.92
2022-09-07T03:50:43.720Z,13.90
2022-09-07T03:52:48.921Z,13.89
2022-09-07T03:54:52.618Z,13.89
2022-09-07T03:56:56.120Z,13.88
2022-09-07T03:58:59.812Z,13.90
2022-09-07T04:01:08.307Z,13.90
2022-09-07T04:03:12.978Z,13.93
2022-09-07T04:05:18.893Z,13.94
2022-09-07T04:07:23.328Z,13.93
2022-09-07T04:09:29.012Z,13.95
2022-09-07T04:11:34.004Z,13.97
2022-09-07T04:13:38.158Z,13.96
2022-09-07T04:15:44.496Z,13.94
2022-09-07T04:17:48.725Z,13.95
2022-09-07T04:19:53.356Z,13.99
2022-09-07T04:21:57.830Z,14.01
2022-09-07T04:24:01.858Z,14.02
2022-09-07T04:26:07.501Z,14.01
2022-09-07T04:28:12.312Z,14.01
2022-09-07T04:30:16.124Z,14.02
2022-09-07T04:32:20.382Z,14.03
2022-09-07T04:34:26.793Z,14.04
2022-09-07T04:36:30.512Z,14.06
2022-09-07T04:38:34.199Z,14.04
2022-09-07T04:40:38.708Z,14.00
2022-09-07T04:42:46.566Z,14.00
2022-09-07T04:44:51.200Z,13.99
2022-09-07T04:46:55.289Z,13.98
2022-09-07T04:49:02.957Z,13.96
2022-09-07T04:51:07.199Z,13.97
2022-09-07T04:53:11.556Z,13.97
2022-09-07T04:55:15.168Z,13.95
2022-09-07T04:57:21.809Z,13.95
2022-09-07T04:59:26.867Z,13.95
2022-09-07T05:01:30.925Z,13.95
2022-09-07T05:03:37.488Z,13.95
2022-09-07T05:05:41.766Z,13.95
2022-09-07T05:07:45.280Z,13.94
2022-09-07T05:09:49.104Z,13.92
2022-09-07T05:11:52.543Z,13.90
2022-09-07T05:13:57.774Z,13.86
2022-09-07T05:16:11.600Z,13.84
2022-09-07T05:18:16.036Z,13.81
2022-09-07T05:20:22.333Z,13.79
2022-09-07T05:22:26.973Z,13.78
2022-09-07T05:24:35.341Z,13.77
2022-09-07T05:26:40.586Z,13.76
2022-09-07T05:28:45.451Z,13.77
2022-09-07T05:33:15.359Z,13.78
2022-09-07T05:35:20.749Z,13.81
2022-09-07T05:37:24.345Z,13.84
2022-09-07T05:39:29.037Z,13.84
2022-09-07T05:41:33.283Z,13.82
2022-09-07T05:46:08.948Z,13.79
2022-09-07T05:48:16.673Z,13.77
2022-09-07T05:50:22.645Z,13.77
2022-09-07T05:52:26.713Z,13.76
2022-09-07T05:54:30.519Z,13.77
2022-09-07T05:56:36.334Z,13.79
2022-09-07T05:58:41.831Z,13.79
2022-09-07T06:00:45.739Z,13.81
2022-09-07T06:02:50.708Z,13.83
2022-09-07T06:04:55.883Z,13.81
2022-09-07T06:07:20.694Z,13.81
2022-09-07T06:09:28.415Z,13.82
2022-09-07T06:11:35.674Z,13.82
2022-09-07T06:13:40.222Z,13.84
2022-09-07T06:15:43.757Z,13.86
2022-09-07T06:17:48.624Z,13.88
2022-09-07T06:19:52.408Z,13.90
2022-09-07T06:21:58.121Z,13.90
2022-09-07T06:24:01.884Z,13.91
2022-09-07T06:26:06.196Z,13.90
2022-09-07T06:28:09.934Z,13.90
2022-09-07T06:30:14.432Z,13.90
2022-09-07T06:34:44.885Z,13.91
2022-09-07T06:36:48.994Z,13.93
2022-09-07T06:38:55.489Z,13.97
2022-09-07T06:43:27.473Z,13.99
2022-09-07T06:45:32.523Z,14.00
2022-09-07T06:47:36.036Z,13.99
2022-09-07T06:49:39.820Z,13.96
2022-09-07T06:51:44.438Z,13.98
2022-09-07T06:53:50.337Z,13.98
2022-09-07T06:55:56.521Z,13.98
2022-09-07T06:58:01.040Z,13.97
2022-09-07T07:00:06.042Z,13.99
2022-09-07T07:02:13.789Z,13.99
2022-09-07T07:04:18.414Z,13.99
2022-09-07T07:06:23.272Z,14.00
2022-09-07T07:08:28.624Z,13.99
2022-09-07T07:10:32.539Z,14.02
2022-09-07T07:14:44.767Z,14.05
2022-09-07T07:16:51.731Z,14.08
2022-09-07T07:18:59.402Z,14.06
2022-09-07T07:21:05.442Z,14.08
2022-09-07T07:23:10.989Z,14.10
2022-09-07T07:25:18.103Z,14.10
2022-09-07T07:27:22.741Z,14.13
2022-09-07T07:29:29.007Z,14.14
2022-09-07T07:31:36.877Z,14.15
2022-09-07T07:33:42.101Z,14.16
2022-09-07T07:35:47.383Z,14.17
2022-09-07T07:40:20.436Z,14.30
2022-09-07T07:42:28.321Z,14.33
2022-09-07T07:44:34.913Z,14.34
2022-09-07T07:46:39.077Z,14.36
2022-09-07T07:48:44.584Z,14.37
2022-09-07T07:51:02.649Z,14.36
2022-09-07T07:55:48.056Z,14.32
2022-09-07T07:57:51.766Z,14.29
2022-09-07T07:59:57.918Z,14.25
2022-09-07T08:02:05.266Z,14.19
2022-09-07T08:04:11.081Z,14.18
2022-09-07T08:06:16.560Z,14.17
2022-09-07T08:08:21.477Z,14.18
2022-09-07T08:10:27.240Z,14.21
2022-09-07T08:12:31.807Z,14.34
2022-09-07T08:14:36.827Z,14.51
2022-09-07T08:16:45.215Z,14.70
2022-09-07T08:18:49.200Z,14.89
2022-09-07T08:20:53.327Z,15.16
2022-09-07T08:22:57.246Z,15.46
2022-09-07T08:25:01.555Z,15.69
2022-09-07T08:27:07.213Z,15.81
2022-09-07T08:29:13.087Z,15.92
2022-09-07T08:31:21.790Z,16.09
2022-09-07T08:33:29.003Z,16.22
2022-09-07T08:35:32.625Z,16.35
2022-09-07T08:37:37.298Z,16.58
2022-09-07T08:39:41.930Z,16.71
2022-09-07T08:42:13.749Z,16.75
2022-09-07T08:44:24.899Z,16.67
2022-09-07T08:46:34.854Z,16.56
2022-09-07T08:48:43.244Z,16.44
2022-09-07T08:50:55.370Z,16.28
2022-09-07T08:53:05.380Z,16.15
2022-09-07T08:55:16.063Z,16.03
2022-09-07T08:57:28.524Z,15.96
2022-09-07T08:59:41.293Z,15.88
2022-09-07T09:02:27.144Z,15.83
2022-09-07T09:04:20.183Z,15.76
2022-09-07T09:06:33.414Z,15.68
2022-09-07T09:08:54.795Z,15.66
2022-09-07T09:11:08.183Z,15.69
2022-09-07T09:13:19.687Z,15.71
2022-09-07T09:15:31.188Z,15.74
2022-09-07T09:17:40.649Z,15.84
2022-09-07T09:19:59.427Z,15.96
2022-09-07T09:22:11.256Z,16.13
2022-09-07T09:24:19.387Z,16.34
2022-09-07T09:26:26.450Z,16.49
2022-09-07T09:28:32.419Z,16.57
2022-09-07T09:30:36.140Z,16.66
2022-09-07T09:32:41.839Z,16.77
2022-09-07T09:35:04.700Z,17.01
2022-09-07T09:37:13.727Z,17.29
2022-09-07T09:39:27.992Z,17.57
2022-09-07T09:41:38.512Z,17.87
2022-09-07T09:43:47.000Z,18.14
2022-09-07T09:48:22.222Z,18.14
2022-09-07T09:52:56.818Z,17.73
2022-09-07T10:00:27.996Z,17.47
2022-09-07T10:04:59.459Z,17.26
2022-09-07T10:07:19.705Z,17.16
2022-09-07T10:09:29.092Z,17.07
2022-09-07T10:14:22.295Z,17.07
2022-09-07T10:16:40.450Z,17.27
2022-09-07T10:18:56.882Z,17.46
2022-09-07T10:21:28.196Z,17.51
2022-09-07T10:23:33.143Z,17.42
2022-09-07T10:25:39.795Z,17.34
2022-09-07T10:27:47.147Z,17.27
2022-09-07T10:29:51.051Z,17.18
2022-09-07T10:32:12.974Z,17.15
2022-09-07T10:34:28.996Z,17.15
2022-09-07T10:36:38.177Z,17.08
2022-09-07T10:38:49.461Z,17.03
2022-09-07T10:41:00.019Z,17.00
2022-09-07T10:43:21.544Z,17.02
2022-09-07T10:45:36.797Z,17.02
2022-09-07T10:47:50.104Z,17.04
2022-09-07T10:52:30.479Z,17.09
2022-09-07T10:54:44.300Z,17.13
2022-09-07T10:56:59.525Z,17.14
2022-09-07T10:59:17.533Z,17.07
2022-09-07T11:01:28.683Z,17.01
2022-09-07T11:03:56.034Z,16.95
2022-09-07T11:06:12.492Z,16.96
2022-09-07T11:09:15.928Z,16.96
2022-09-07T11:11:10.247Z,16.96
2022-09-07T11:13:20.186Z,16.95
2022-09-07T11:15:29.012Z,16.90
2022-09-07T11:17:44.158Z,16.83
2022-09-07T11:19:53.017Z,16.83
2022-09-07T11:22:02.616Z,16.80
2022-09-07T11:24:10.355Z,16.74
2022-09-07T11:26:22.666Z,16.77
2022-09-07T11:28:30.951Z,16.77
2022-09-07T11:30:39.825Z,16.80
2022-09-07T11:32:52.853Z,16.78
2022-09-07T11:35:01.780Z,16.73
2022-09-07T11:37:12.615Z,16.74
2022-09-07T11:39:23.777Z,16.80
2022-09-07T11:41:32.732Z,16.81
2022-09-07T11:43:44.348Z,16.81
2022-09-07T11:45:53.956Z,16.82
2022-09-07T11:48:01.463Z,16.72
2022-09-07T11:50:05.857Z,16.68
2022-09-07T11:52:16.464Z,16.61
2022-09-07T11:54:41.050Z,16.63
2022-09-07T11:56:53.095Z,16.69
2022-09-07T11:59:22.572Z,16.77
2022-09-07T12:01:38.301Z,16.81
2022-09-07T12:04:17.748Z,16.84
2022-09-07T12:06:47.865Z,16.82
2022-09-07T12:09:07.097Z,16.83
2022-09-07T12:11:39.022Z,16.86
2022-09-07T12:14:08.665Z,16.86
2022-09-07T12:16:20.773Z,16.99
2022-09-07T12:18:43.424Z,17.21
2022-09-07T12:20:49.435Z,17.45
2022-09-07T12:23:05.279Z,17.65
2022-09-07T12:25:11.501Z,17.82
2022-09-07T12:27:41.277Z,18.06
2022-09-07T12:29:47.299Z,18.27
2022-09-07T12:32:52.779Z,18.38
2022-09-07T12:34:58.471Z,18.49
2022-09-07T12:37:05.354Z,18.55
2022-09-07T12:39:27.199Z,18.63
2022-09-07T12:42:31.988Z,18.72
2022-09-07T12:44:29.260Z,18.82
2022-09-07T12:46:56.376Z,18.84
2022-09-07T12:49:08.621Z,18.88
2022-09-07T12:51:59.607Z,18.95
2022-09-07T12:53:57.591Z,18.84
2022-09-07T12:56:26.935Z,18.69
2022-09-07T12:58:42.728Z,18.65
2022-09-07T13:00:58.342Z,18.66
2022-09-07T13:06:05.886Z,18.58
2022-09-07T13:08:40.467Z,18.51
2022-09-07T13:10:44.946Z,18.51
2022-09-07T13:12:56.789Z,18.48
2022-09-07T13:15:02.162Z,18.40
2022-09-07T13:17:44.825Z,18.31
2022-09-07T13:20:24.318Z,18.33
2022-09-07T13:22:58.666Z,18.34
2022-09-07T13:25:04.367Z,18.29
2022-09-07T13:27:30.710Z,18.26
2022-09-07T13:29:40.861Z,18.20
2022-09-07T13:31:53.777Z,18.18
2022-09-07T13:33:58.226Z,18.15
2022-09-07T13:36:06.443Z,18.11
2022-09-07T13:38:15.752Z,17.99
2022-09-07T13:40:23.489Z,17.97
2022-09-07T13:42:30.678Z,17.93
2022-09-07T13:44:35.739Z,17.87
2022-09-07T13:46:58.453Z,17.84
2022-09-07T13:49:07.892Z,17.86
2022-09-07T13:51:19.006Z,17.86
2022-09-07T13:53:35.505Z,17.84
2022-09-07T13:55:47.043Z,17.83
2022-09-07T13:58:04.213Z,17.83
2022-09-07T14:00:15.357Z,17.82
2022-09-07T14:02:25.006Z,17.82
2022-09-07T14:04:35.607Z,17.83
2022-09-07T14:06:40.591Z,17.81
2022-09-07T14:08:49.590Z,17.80
2022-09-07T14:10:53.113Z,17.79
2022-09-07T14:13:07.948Z,17.76
2022-09-07T14:15:21.306Z,17.76
2022-09-07T14:17:25.113Z,17.80
2022-09-07T14:19:38.123Z,17.83
2022-09-07T14:21:43.588Z,17.85
2022-09-07T14:23:51.621Z,17.89
2022-09-07T14:26:17.603Z,17.93
2022-09-07T14:28:33.902Z,17.92
2022-09-07T14:30:38.376Z,17.87
2022-09-07T14:32:42.818Z,17.85
2022-09-07T14:34:47.240Z,17.82
2022-09-07T14:36:54.374Z,17.76
2022-09-07T14:39:07.001Z,17.71
2022-09-07T14:41:14.888Z,17.68
2022-09-07T14:43:30.015Z,17.62
2022-09-07T14:45:37.546Z,17.60
2022-09-07T14:47:41.894Z,17.54
2022-09-07T14:49:58.802Z,17.49
2022-09-07T14:52:04.847Z,17.34
2022-09-07T14:54:10.740Z,17.22
2022-09-07T14:56:22.935Z,17.19
2022-09-07T14:58:26.683Z,17.19
2022-09-07T15:00:33.121Z,17.21
2022-09-07T15:02:38.338Z,17.28
2022-09-07T15:04:42.251Z,17.29
2022-09-07T15:07:04.331Z,17.27
2022-09-07T15:09:31.004Z,17.27
2022-09-07T15:11:39.196Z,17.28
2022-09-07T15:13:46.609Z,17.25
2022-09-07T15:15:58.726Z,17.21
2022-09-07T15:18:08.793Z,17.20
2022-09-07T15:20:41.587Z,17.20
2022-09-07T15:22:46.142Z,17.26
2022-09-07T15:24:52.241Z,17.27
2022-09-07T15:27:05.217Z,17.32
2022-09-07T15:29:10.955Z,17.36
2022-09-07T15:33:40.726Z,17.44
2022-09-07T15:35:44.736Z,17.38
2022-09-07T15:38:06.076Z,17.34
2022-09-07T15:40:20.594Z,17.31
2022-09-07T15:44:51.085Z,17.23
2022-09-07T15:49:21.042Z,17.11
2022-09-07T15:56:16.277Z,17.00
2022-09-07T15:58:19.900Z,17.00
2022-09-07T16:00:23.426Z,17.02
2022-09-07T16:04:51.907Z,17.06
2022-09-07T16:06:55.743Z,17.04
2022-09-07T16:08:59.261Z,16.99
2022-09-07T16:11:18.691Z,16.99
2022-09-07T16:13:24.657Z,17.03
2022-09-07T16:15:29.227Z,17.07
2022-09-07T16:17:36.558Z,17.07
2022-09-07T16:19:41.489Z,17.09
2022-09-07T16:21:57.469Z,17.08
2022-09-07T16:24:03.106Z,17.05
2022-09-07T16:26:09.773Z,17.06
2022-09-07T16:28:15.304Z,17.08
2022-09-07T16:30:19.054Z,17.14
2022-09-07T16:34:46.080Z,17.22
2022-09-07T16:36:50.026Z,17.33
2022-09-07T16:38:59.978Z,17.34
2022-09-07T16:41:04.327Z,17.35
2022-09-07T16:43:11.868Z,17.38
2022-09-07T16:47:41.366Z,17.42
2022-09-07T16:49:45.309Z,17.45
2022-09-07T16:51:49.930Z,17.46
2022-09-07T16:53:58.868Z,17.51
2022-09-07T16:56:05.754Z,17.53
2022-09-07T17:00:34.709Z,17.43
2022-09-07T17:02:38.427Z,17.38
2022-09-07T17:04:42.352Z,17.32
2022-09-07T17:06:46.331Z,17.29
2022-09-07T17:08:49.974Z,17.28
2022-09-07T17:11:02.359Z,17.21
2022-09-07T17:13:09.300Z,17.15
2022-09-07T17:15:15.032Z,17.15
2022-09-07T17:17:20.391Z,17.17
2022-09-07T17:19:31.620Z,17.20
2022-09-07T17:21:38.683Z,17.13
2022-09-07T17:23:49.439Z,17.09
2022-09-07T17:26:06.918Z,17.01
2022-09-07T17:28:11.133Z,16.95
2022-09-07T17:30:15.880Z,16.88
2022-09-07T17:32:25.389Z,16.86
2022-09-07T17:34:30.603Z,16.83
2022-09-07T17:36:34.687Z,16.85
2022-09-07T17:41:10.435Z,16.87
2022-09-07T17:45:37.793Z,16.81
2022-09-07T17:47:43.176Z,16.77
2022-09-07T17:49:46.878Z,16.78
2022-09-07T17:51:50.468Z,16.74
2022-09-07T17:53:58.771Z,16.68
2022-09-07T17:56:02.776Z,16.64
2022-09-07T17:58:06.456Z,16.60
2022-09-07T18:00:12.318Z,16.50
2022-09-07T18:02:16.245Z,16.45
2022-09-07T18:04:21.442Z,16.41
2022-09-07T18:06:25.966Z,16.37
2022-09-07T18:08:29.465Z,16.32
2022-09-07T18:12:58.162Z,16.26
2022-09-07T18:15:01.784Z,16.22
2022-09-07T18:17:06.563Z,16.17
2022-09-07T18:19:11.224Z,16.15
2022-09-07T18:21:18.882Z,16.09
2022-09-07T18:23:22.963Z,16.10
2022-09-07T18:25:26.862Z,16.10
2022-09-07T18:27:32.461Z,16.09
2022-09-07T18:29:36.023Z,16.08
2022-09-07T18:31:40.016Z,16.07
2022-09-07T18:33:43.822Z,16.07
2022-09-07T18:35:48.073Z,16.03
2022-09-07T18:37:54.427Z,16.02
2022-09-07T18:39:58.825Z,16.00
2022-09-07T18:42:02.410Z,15.97
2022-09-07T18:45:27.337Z,15.92
2022-09-07T18:46:30.582Z,15.86
2022-09-07T18:48:35.000Z,15.82
2022-09-07T18:50:39.132Z,15.81
2022-09-07T18:53:07.120Z,15.78
2022-09-07T18:55:10.254Z,15.73
2022-09-07T18:57:15.505Z,15.72
2022-09-07T18:59:19.716Z,15.67
2022-09-07T19:01:24.490Z,15.65
2022-09-07T19:03:29.059Z,15.63
2022-09-07T19:07:56.451Z,15.59
2022-09-07T19:10:00.404Z,15.55
2022-09-07T19:12:08.105Z,15.55
2022-09-07T19:14:12.361Z,15.55
2022-09-07T19:16:18.759Z,15.54
2022-09-07T19:18:22.692Z,15.55
2022-09-07T19:20:29.030Z,15.56
2022-09-07T19:22:32.723Z,15.59
2022-09-07T19:24:37.943Z,15.61
2022-09-07T19:26:45.012Z,15.63
2022-09-07T19:28:55.575Z,15.65
2022-09-07T19:31:05.153Z,15.62
2022-09-07T19:33:12.289Z,15.59
2022-09-07T19:35:18.402Z,15.55
2022-09-07T19:37:26.028Z,15.52
2022-09-07T19:39:31.536Z,15.49
2022-09-07T19:41:42.197Z,15.50
2022-09-07T19:43:48.402Z,15.50
2022-09-07T19:45:55.996Z,15.52
2022-09-07T19:48:00.280Z,15.50
2022-09-07T19:50:06.670Z,15.51
2022-09-07T19:52:13.427Z,15.51
2022-09-07T19:54:17.431Z,15.50
2022-09-07T19:56:22.683Z,15.48
2022-09-07T19:58:28.138Z,15.47
2022-09-07T20:00:35.380Z,15.43
2022-09-07T20:02:44.217Z,15.41
2022-09-07T20:04:53.566Z,15.38
2022-09-07T20:06:57.970Z,15.37
2022-09-07T20:09:04.810Z,15.35
2022-09-07T20:11:13.471Z,15.34
2022-09-07T20:13:18.349Z,15.33
2022-09-07T20:15:22.307Z,15.32
2022-09-07T20:17:31.838Z,15.32
2022-09-07T20:19:41.844Z,15.32
2022-09-07T20:21:46.866Z,15.33
2022-09-07T20:23:53.054Z,15.33
2022-09-07T20:26:01.699Z,15.32
2022-09-07T20:28:06.749Z,15.31
2022-09-07T20:30:15.350Z,15.29
2022-09-07T20:32:24.736Z,15.28
2022-09-07T20:34:32.244Z,15.26
2022-09-07T20:36:40.671Z,15.22
2022-09-07T20:38:48.091Z,15.21
2022-09-07T20:40:58.325Z,15.20
2022-09-07T20:43:03.247Z,15.18
2022-09-07T20:45:08.734Z,15.18
2022-09-07T20:47:14.093Z,15.16
2022-09-07T20:49:17.856Z,15.15
2022-09-07T20:51:23.070Z,15.13
2022-09-07T20:53:29.871Z,15.11
2022-09-07T20:55:34.405Z,15.07
2022-09-07T20:57:38.652Z,15.05
2022-09-07T20:59:44.914Z,15.00
2022-09-07T21:01:49.770Z,14.96
2022-09-07T21:03:56.524Z,14.90
2022-09-07T21:06:04.671Z,14.85
2022-09-07T21:08:08.808Z,14.81
2022-09-07T21:10:16.310Z,14.76
2022-09-07T21:12:21.319Z,14.71
2022-09-07T21:14:25.912Z,14.70
2022-09-07T21:16:31.569Z,14.71
2022-09-07T21:18:36.970Z,14.71
2022-09-07T21:20:41.848Z,14.69
2022-09-07T21:22:46.186Z,14.68
2022-09-07T21:24:51.231Z,14.68
2022-09-07T21:26:56.625Z,14.69
2022-09-07T21:29:03.137Z,14.70
2022-09-07T21:31:09.210Z,14.73
2022-09-07T21:33:13.253Z,14.74
2022-09-07T21:35:18.180Z,14.75
2022-09-07T21:37:23.690Z,14.76
2022-09-07T21:39:28.281Z,14.76
2022-09-07T21:41:33.989Z,14.78
2022-09-07T21:43:39.553Z,14.80
2022-09-07T21:45:43.699Z,14.82
2022-09-07T21:47:47.450Z,14.82
2022-09-07T21:49:52.880Z,14.84
2022-09-07T21:51:56.440Z,14.87
2022-09-07T21:54:01.429Z,14.91
2022-09-07T21:56:07.378Z,14.94
2022-09-07T21:58:10.931Z,14.96
2022-09-07T22:00:16.521Z,14.99
2022-09-07T22:02:20.062Z,15.00
2022-09-07T22:04:23.520Z,15.03
2022-09-07T22:06:28.493Z,15.04
2022-09-07T22:08:32.022Z,15.04
2022-09-07T22:10:35.472Z,15.04
2022-09-07T22:12:39.013Z,15.02
2022-09-07T22:14:42.866Z,15.02
2022-09-07T22:16:47.909Z,15.01
2022-09-07T22:18:51.817Z,15.03
2022-09-07T22:21:03.318Z,15.03
2022-09-07T22:23:07.529Z,15.03
2022-09-07T22:25:11.210Z,15.06
2022-09-07T22:27:14.780Z,15.06
2022-09-07T22:29:18.599Z,15.06
2022-09-07T22:31:24.842Z,15.06
2022-09-07T22:33:33.403Z,15.05
2022-09-07T22:35:37.144Z,15.04
2022-09-07T22:37:40.520Z,15.03
2022-09-07T22:39:44.713Z,15.02
2022-09-07T22:41:48.947Z,15.02
2022-09-07T22:43:52.831Z,15.00
2022-09-07T22:45:56.678Z,14.98
2022-09-07T22:48:00.233Z,14.96
2022-09-07T22:50:05.802Z,14.97
2022-09-07T22:52:09.413Z,14.98
2022-09-07T22:54:16.466Z,15.01
2022-09-07T22:56:21.910Z,15.02
2022-09-07T22:58:29.176Z,15.00
2022-09-07T23:00:33.734Z,14.92
2022-09-07T23:02:38.530Z,14.86
2022-09-07T23:04:44.256Z,14.83
2022-09-07T23:06:49.386Z,14.80
2022-09-07T23:08:54.488Z,14.80
2022-09-07T23:11:05.324Z,14.79
2022-09-07T23:13:14.933Z,14.78
2022-09-07T23:15:20.757Z,14.78
2022-09-07T23:17:24.912Z,14.77
2022-09-07T23:19:28.667Z,14.77
2022-09-07T23:21:32.542Z,14.78
2022-09-07T23:23:38.737Z,14.80
2022-09-07T23:25:44.713Z,14.80
2022-09-07T23:27:48.218Z,14.81
2022-09-07T23:29:52.164Z,14.83
2022-09-07T23:31:55.830Z,14.85
2022-09-07T23:34:00.641Z,14.85
2022-09-07T23:36:07.551Z,14.85
2022-09-07T23:38:11.519Z,14.86
2022-09-07T23:40:16.857Z,14.86
2022-09-07T23:42:21.125Z,14.88
2022-09-07T23:44:24.732Z,14.89
2022-09-07T23:46:28.399Z,14.91
2022-09-07T23:48:32.032Z,14.93
2022-09-07T23:50:35.743Z,14.95
2022-09-07T23:52:39.151Z,14.97
2022-09-07T23:54:43.063Z,14.98
2022-09-07T23:56:48.286Z,14.99
2022-09-07T23:58:52.262Z,14.96
